sensor_id;sensor_type;location;lat;lon;timestamp;P1;durP1;ratioP1;P2;durP2;ratioP2
47403;SDS011;33157;51.508;4.288;2023-02-24T00:09:55;17.85;;;3.60;;
47403;SDS011;33157;51.508;4.288;2023-02-24T00:14:57;25.50;;;3.47;;
47403;SDS011;33157;51.508;4.288;2023-02-24T00:20:03;21.80;;;3.58;;
47403;SDS011;33157;51.508;4.288;2023-02-24T00:25:07;19.60;;;4.28;;
47403;SDS011;33157;51.508;4.288;2023-02-24T00:30:13;16.17;;;2.93;;
47403;SDS011;33157;51.508;4.288;2023-02-24T00:35:16;24.35;;;3.78;;
47403;SDS011;33157;51.508;4.288;2023-02-24T00:40:17;17.50;;;3.47;;
47403;SDS011;33157;51.508;4.288;2023-02-24T00:45:23;15.82;;;2.97;;
47403;SDS011;33157;51.508;4.288;2023-02-24T00:50:30;19.70;;;2.90;;
47403;SDS011;33157;51.508;4.288;2023-02-24T00:55:33;23.50;;;3.13;;
47403;SDS011;33157;51.508;4.288;2023-02-24T01:00:37;16.52;;;3.25;;
47403;SDS011;33157;51.508;4.288;2023-02-24T01:05:38;19.63;;;3.20;;
47403;SDS011;33157;51.508;4.288;2023-02-24T01:10:40;16.23;;;3.15;;
47403;SDS011;33157;51.508;4.288;2023-02-24T01:16:01;15.88;;;4.32;;
47403;SDS011;33157;51.508;4.288;2023-02-24T01:21:03;11.75;;;2.50;;
47403;SDS011;33157;51.508;4.288;2023-02-24T01:26:05;18.90;;;2.63;;
47403;SDS011;33157;51.508;4.288;2023-02-24T01:31:15;15.02;;;2.05;;
47403;SDS011;33157;51.508;4.288;2023-02-24T01:36:25;17.58;;;3.03;;
47403;SDS011;33157;51.508;4.288;2023-02-24T01:41:33;11.80;;;2.13;;
47403;SDS011;33157;51.508;4.288;2023-02-24T01:46:37;16.58;;;2.35;;
47403;SDS011;33157;51.508;4.288;2023-02-24T01:51:48;24.73;;;2.85;;
47403;SDS011;33157;51.508;4.288;2023-02-24T01:56:57;11.57;;;2.08;;
47403;SDS011;33157;51.508;4.288;2023-02-24T02:02:03;14.43;;;2.40;;
47403;SDS011;33157;51.508;4.288;2023-02-24T02:07:06;16.77;;;2.20;;
47403;SDS011;33157;51.508;4.288;2023-02-24T02:12:22;19.88;;;2.90;;
47403;SDS011;33157;51.508;4.288;2023-02-24T02:44:52;31.17;;;3.03;;
47403;SDS011;33157;51.508;4.288;2023-02-24T02:50:23;10.23;;;1.67;;
47403;SDS011;33157;51.508;4.288;2023-02-24T02:55:48;15.02;;;2.13;;
47403;SDS011;33157;51.508;4.288;2023-02-24T03:01:03;10.32;;;2.08;;
47403;SDS011;33157;51.508;4.288;2023-02-24T03:06:12;13.68;;;1.98;;
47403;SDS011;33157;51.508;4.288;2023-02-24T03:11:21;9.88;;;2.00;;
47403;SDS011;33157;51.508;4.288;2023-02-24T03:16:23;16.13;;;2.13;;
47403;SDS011;33157;51.508;4.288;2023-02-24T03:21:39;11.63;;;1.95;;
47403;SDS011;33157;51.508;4.288;2023-02-24T03:26:52;10.95;;;1.92;;
47403;SDS011;33157;51.508;4.288;2023-02-24T03:32:03;16.15;;;2.50;;
47403;SDS011;33157;51.508;4.288;2023-02-24T03:37:21;13.05;;;2.83;;
47403;SDS011;33157;51.508;4.288;2023-02-24T03:42:31;9.43;;;1.80;;
47403;SDS011;33157;51.508;4.288;2023-02-24T03:47:35;11.52;;;2.33;;
47403;SDS011;33157;51.508;4.288;2023-02-24T03:52:46;12.50;;;1.90;;
47403;SDS011;33157;51.508;4.288;2023-02-24T04:03:25;11.18;;;1.40;;
47403;SDS011;33157;51.508;4.288;2023-02-24T04:09:22;12.25;;;1.80;;
47403;SDS011;33157;51.508;4.288;2023-02-24T04:14:06;12.50;;;2.25;;
47403;SDS011;33157;51.508;4.288;2023-02-24T04:19:13;13.13;;;1.83;;
47403;SDS011;33157;51.508;4.288;2023-02-24T04:24:17;15.18;;;1.92;;
47403;SDS011;33157;51.508;4.288;2023-02-24T04:29:28;9.13;;;2.10;;
47403;SDS011;33157;51.508;4.288;2023-02-24T04:39:39;10.15;;;2.00;;
47403;SDS011;33157;51.508;4.288;2023-02-24T04:44:44;11.95;;;1.60;;
47403;SDS011;33157;51.508;4.288;2023-02-24T04:49:46;10.38;;;2.15;;
47403;SDS011;33157;51.508;4.288;2023-02-24T04:54:48;10.10;;;1.63;;
47403;SDS011;33157;51.508;4.288;2023-02-24T04:59:51;12.23;;;1.70;;
47403;SDS011;33157;51.508;4.288;2023-02-24T05:04:54;8.82;;;1.65;;
47403;SDS011;33157;51.508;4.288;2023-02-24T05:10:00;16.83;;;2.30;;
47403;SDS011;33157;51.508;4.288;2023-02-24T05:15:05;13.85;;;2.08;;
47403;SDS011;33157;51.508;4.288;2023-02-24T05:20:07;11.15;;;1.65;;
47403;SDS011;33157;51.508;4.288;2023-02-24T05:25:28;13.85;;;1.98;;
47403;SDS011;33157;51.508;4.288;2023-02-24T05:30:37;13.27;;;1.75;;
47403;SDS011;33157;51.508;4.288;2023-02-24T05:35:38;19.80;;;3.80;;
47403;SDS011;33157;51.508;4.288;2023-02-24T05:40:41;11.23;;;1.95;;
47403;SDS011;33157;51.508;4.288;2023-02-24T05:45:46;12.52;;;1.67;;
47403;SDS011;33157;51.508;4.288;2023-02-24T05:50:52;6.80;;;1.50;;
47403;SDS011;33157;51.508;4.288;2023-02-24T05:56:23;13.60;;;1.73;;
47403;SDS011;33157;51.508;4.288;2023-02-24T06:01:38;14.85;;;1.75;;
47403;SDS011;33157;51.508;4.288;2023-02-24T06:06:47;6.63;;;1.42;;
47403;SDS011;33157;51.508;4.288;2023-02-24T06:12:03;13.35;;;2.00;;
47403;SDS011;33157;51.508;4.288;2023-02-24T06:17:06;15.85;;;2.15;;
47403;SDS011;33157;51.508;4.288;2023-02-24T06:22:08;8.10;;;1.50;;
47403;SDS011;33157;51.508;4.288;2023-02-24T06:27:41;17.15;;;2.08;;
47403;SDS011;33157;51.508;4.288;2023-02-24T06:32:45;10.38;;;1.88;;
47403;SDS011;33157;51.508;4.288;2023-02-24T06:37:46;10.30;;;1.80;;
47403;SDS011;33157;51.508;4.288;2023-02-24T06:42:49;12.93;;;1.90;;
47403;SDS011;33157;51.508;4.288;2023-02-24T06:47:53;14.18;;;2.58;;
47403;SDS011;33157;51.508;4.288;2023-02-24T06:52:54;13.35;;;1.90;;
47403;SDS011;33157;51.508;4.288;2023-02-24T06:58:17;6.05;;;1.60;;
47403;SDS011;33157;51.508;4.288;2023-02-24T07:03:24;15.27;;;2.15;;
47403;SDS011;33157;51.508;4.288;2023-02-24T07:08:40;15.20;;;2.47;;
47403;SDS011;33157;51.508;4.288;2023-02-24T07:13:43;17.60;;;1.77;;
47403;SDS011;33157;51.508;4.288;2023-02-24T07:18:46;6.65;;;1.60;;
47403;SDS011;33157;51.508;4.288;2023-02-24T07:23:48;13.93;;;2.10;;
47403;SDS011;33157;51.508;4.288;2023-02-24T07:29:04;18.48;;;2.15;;
47403;SDS011;33157;51.508;4.288;2023-02-24T07:34:06;21.48;;;2.20;;
47403;SDS011;33157;51.508;4.288;2023-02-24T07:39:15;17.40;;;2.28;;
47403;SDS011;33157;51.508;4.288;2023-02-24T07:44:20;10.70;;;1.95;;
47403;SDS011;33157;51.508;4.288;2023-02-24T07:49:25;14.20;;;2.72;;
47403;SDS011;33157;51.508;4.288;2023-02-24T07:54:37;13.07;;;2.00;;
47403;SDS011;33157;51.508;4.288;2023-02-24T07:59:40;14.98;;;2.08;;
47403;SDS011;33157;51.508;4.288;2023-02-24T08:04:49;13.90;;;2.40;;
47403;SDS011;33157;51.508;4.288;2023-02-24T08:09:51;13.10;;;2.40;;
47403;SDS011;33157;51.508;4.288;2023-02-24T08:15:16;20.35;;;2.83;;
47403;SDS011;33157;51.508;4.288;2023-02-24T08:20:32;15.30;;;3.08;;
47403;SDS011;33157;51.508;4.288;2023-02-24T08:25:51;19.77;;;4.13;;
47403;SDS011;33157;51.508;4.288;2023-02-24T08:30:53;9.60;;;2.47;;
47403;SDS011;33157;51.508;4.288;2023-02-24T08:35:59;11.57;;;3.13;;
47403;SDS011;33157;51.508;4.288;2023-02-24T08:41:02;10.77;;;2.20;;
47403;SDS011;33157;51.508;4.288;2023-02-24T08:51:16;16.85;;;2.80;;
47403;SDS011;33157;51.508;4.288;2023-02-24T08:56:22;23.55;;;2.92;;
47403;SDS011;33157;51.508;4.288;2023-02-24T09:01:43;16.63;;;2.40;;
47403;SDS011;33157;51.508;4.288;2023-02-24T09:06:57;16.80;;;2.58;;
47403;SDS011;33157;51.508;4.288;2023-02-24T09:12:02;13.30;;;2.42;;
47403;SDS011;33157;51.508;4.288;2023-02-24T09:17:07;13.00;;;3.10;;
47403;SDS011;33157;51.508;4.288;2023-02-24T09:22:31;12.98;;;2.60;;
47403;SDS011;33157;51.508;4.288;2023-02-24T09:27:49;17.88;;;2.92;;
47403;SDS011;33157;51.508;4.288;2023-02-24T09:33:08;15.57;;;3.28;;
47403;SDS011;33157;51.508;4.288;2023-02-24T09:38:19;19.90;;;3.42;;
47403;SDS011;33157;51.508;4.288;2023-02-24T09:43:38;13.88;;;3.30;;
47403;SDS011;33157;51.508;4.288;2023-02-24T09:48:54;21.92;;;4.78;;
47403;SDS011;33157;51.508;4.288;2023-02-24T09:54:04;17.67;;;4.43;;
47403;SDS011;33157;51.508;4.288;2023-02-24T09:59:32;15.45;;;4.38;;
47403;SDS011;33157;51.508;4.288;2023-02-24T10:10:12;12.60;;;4.47;;
47403;SDS011;33157;51.508;4.288;2023-02-24T10:15:22;13.35;;;3.55;;
47403;SDS011;33157;51.508;4.288;2023-02-24T10:20:47;26.65;;;3.95;;
47403;SDS011;33157;51.508;4.288;2023-02-24T10:25:53;13.45;;;3.15;;
47403;SDS011;33157;51.508;4.288;2023-02-24T10:31:52;26.20;;;3.40;;
47403;SDS011;33157;51.508;4.288;2023-02-24T10:37:10;22.08;;;3.83;;
47403;SDS011;33157;51.508;4.288;2023-02-24T10:42:20;17.75;;;4.55;;
47403;SDS011;33157;51.508;4.288;2023-02-24T10:47:24;15.07;;;3.13;;
47403;SDS011;33157;51.508;4.288;2023-02-24T10:52:35;18.27;;;3.47;;
47403;SDS011;33157;51.508;4.288;2023-02-24T10:57:59;11.30;;;2.80;;
47403;SDS011;33157;51.508;4.288;2023-02-24T11:03:17;17.55;;;4.25;;
47403;SDS011;33157;51.508;4.288;2023-02-24T11:08:42;19.58;;;4.05;;
47403;SDS011;33157;51.508;4.288;2023-02-24T11:14:13;18.67;;;3.87;;
47403;SDS011;33157;51.508;4.288;2023-02-24T11:19:39;22.30;;;4.82;;
47403;SDS011;33157;51.508;4.288;2023-02-24T11:25:06;20.35;;;4.18;;
47403;SDS011;33157;51.508;4.288;2023-02-24T11:30:14;25.35;;;5.50;;
47403;SDS011;33157;51.508;4.288;2023-02-24T11:35:20;21.17;;;5.18;;
47403;SDS011;33157;51.508;4.288;2023-02-24T11:40:26;21.30;;;5.15;;
47403;SDS011;33157;51.508;4.288;2023-02-24T11:45:45;25.38;;;5.93;;
47403;SDS011;33157;51.508;4.288;2023-02-24T11:56:05;22.40;;;4.97;;
47403;SDS011;33157;51.508;4.288;2023-02-24T12:06:47;21.95;;;5.55;;
47403;SDS011;33157;51.508;4.288;2023-02-24T12:12:16;22.75;;;5.88;;
47403;SDS011;33157;51.508;4.288;2023-02-24T12:23:15;17.33;;;7.00;;
47403;SDS011;33157;51.508;4.288;2023-02-24T12:39:01;20.88;;;10.07;;
47403;SDS011;33157;51.508;4.288;2023-02-24T12:49:34;15.73;;;8.65;;
47403;SDS011;33157;51.508;4.288;2023-02-24T13:00:30;15.07;;;9.85;;
47403;SDS011;33157;51.508;4.288;2023-02-24T13:11:02;15.85;;;10.77;;
47403;SDS011;33157;51.508;4.288;2023-02-24T13:16:34;20.92;;;9.77;;
47403;SDS011;33157;51.508;4.288;2023-02-24T13:21:41;18.17;;;10.65;;
47403;SDS011;33157;51.508;4.288;2023-02-24T13:26:42;20.35;;;11.02;;
47403;SDS011;33157;51.508;4.288;2023-02-24T13:31:50;17.13;;;10.07;;
47403;SDS011;33157;51.508;4.288;2023-02-24T13:36:52;21.50;;;10.13;;
47403;SDS011;33157;51.508;4.288;2023-02-24T13:42:39;21.20;;;10.77;;
47403;SDS011;33157;51.508;4.288;2023-02-24T13:47:29;25.27;;;10.55;;
47403;SDS011;33157;51.508;4.288;2023-02-24T14:04:11;21.95;;;9.10;;
47403;SDS011;33157;51.508;4.288;2023-02-24T14:09:22;21.30;;;8.17;;
47403;SDS011;33157;51.508;4.288;2023-02-24T14:14:26;30.17;;;9.07;;
47403;SDS011;33157;51.508;4.288;2023-02-24T14:19:37;26.20;;;8.75;;
47403;SDS011;33157;51.508;4.288;2023-02-24T14:24:39;34.95;;;6.20;;
47403;SDS011;33157;51.508;4.288;2023-02-24T14:29:41;40.97;;;5.80;;
47403;SDS011;33157;51.508;4.288;2023-02-24T14:34:51;23.48;;;4.47;;
47403;SDS011;33157;51.508;4.288;2023-02-24T14:39:57;32.58;;;5.20;;
47403;SDS011;33157;51.508;4.288;2023-02-24T14:45:15;26.88;;;4.40;;
47403;SDS011;33157;51.508;4.288;2023-02-24T14:50:35;30.50;;;4.72;;
47403;SDS011;33157;51.508;4.288;2023-02-24T14:55:41;29.42;;;4.82;;
47403;SDS011;33157;51.508;4.288;2023-02-24T15:00:54;31.45;;;4.80;;
47403;SDS011;33157;51.508;4.288;2023-02-24T15:06:27;27.27;;;4.63;;
47403;SDS011;33157;51.508;4.288;2023-02-24T15:11:31;32.92;;;5.35;;
47403;SDS011;33157;51.508;4.288;2023-02-24T15:16:43;24.08;;;5.30;;
47403;SDS011;33157;51.508;4.288;2023-02-24T15:21:47;27.17;;;5.28;;
47403;SDS011;33157;51.508;4.288;2023-02-24T15:26:54;26.67;;;3.85;;
47403;SDS011;33157;51.508;4.288;2023-02-24T15:32:01;28.77;;;4.45;;
47403;SDS011;33157;51.508;4.288;2023-02-24T15:37:19;20.67;;;3.58;;
47403;SDS011;33157;51.508;4.288;2023-02-24T15:42:27;17.95;;;2.60;;
47403;SDS011;33157;51.508;4.288;2023-02-24T15:47:53;23.58;;;3.50;;
47403;SDS011;33157;51.508;4.288;2023-02-24T15:53:02;22.10;;;3.58;;
47403;SDS011;33157;51.508;4.288;2023-02-24T15:58:27;19.15;;;2.90;;
47403;SDS011;33157;51.508;4.288;2023-02-24T16:03:35;19.88;;;3.22;;
47403;SDS011;33157;51.508;4.288;2023-02-24T16:08:36;16.25;;;2.60;;
47403;SDS011;33157;51.508;4.288;2023-02-24T16:13:47;13.55;;;2.58;;
47403;SDS011;33157;51.508;4.288;2023-02-24T16:19:14;16.95;;;3.20;;
47403;SDS011;33157;51.508;4.288;2023-02-24T16:24:16;12.77;;;2.25;;
47403;SDS011;33157;51.508;4.288;2023-02-24T16:29:22;18.70;;;2.75;;
47403;SDS011;33157;51.508;4.288;2023-02-24T16:34:24;14.18;;;3.00;;
47403;SDS011;33157;51.508;4.288;2023-02-24T16:39:26;16.13;;;3.10;;
47403;SDS011;33157;51.508;4.288;2023-02-24T16:44:30;9.35;;;2.97;;
47403;SDS011;33157;51.508;4.288;2023-02-24T16:49:36;13.18;;;2.25;;
47403;SDS011;33157;51.508;4.288;2023-02-24T16:54:39;10.80;;;2.42;;
47403;SDS011;33157;51.508;4.288;2023-02-24T16:59:42;13.32;;;2.53;;
47403;SDS011;33157;51.508;4.288;2023-02-24T17:04:59;14.30;;;2.17;;
47403;SDS011;33157;51.508;4.288;2023-02-24T17:10:13;18.95;;;3.00;;
47403;SDS011;33157;51.508;4.288;2023-02-24T17:15:18;25.52;;;4.47;;
47403;SDS011;33157;51.508;4.288;2023-02-24T17:20:23;11.27;;;2.42;;
47403;SDS011;33157;51.508;4.288;2023-02-24T17:25:26;14.07;;;1.92;;
47403;SDS011;33157;51.508;4.288;2023-02-24T17:30:30;9.20;;;1.80;;
47403;SDS011;33157;51.508;4.288;2023-02-24T17:35:33;12.77;;;2.58;;
47403;SDS011;33157;51.508;4.288;2023-02-24T17:40:36;13.63;;;2.50;;
47403;SDS011;33157;51.508;4.288;2023-02-24T17:45:46;10.55;;;2.63;;
47403;SDS011;33157;51.508;4.288;2023-02-24T17:50:54;17.77;;;2.38;;
47403;SDS011;33157;51.508;4.288;2023-02-24T17:56:02;14.68;;;2.28;;
47403;SDS011;33157;51.508;4.288;2023-02-24T18:01:06;11.85;;;1.80;;
47403;SDS011;33157;51.508;4.288;2023-02-24T18:06:09;22.98;;;4.00;;
47403;SDS011;33157;51.508;4.288;2023-02-24T18:11:15;15.75;;;3.20;;
47403;SDS011;33157;51.508;4.288;2023-02-24T18:16:19;13.85;;;2.53;;
47403;SDS011;33157;51.508;4.288;2023-02-24T18:21:27;14.60;;;3.10;;
47403;SDS011;33157;51.508;4.288;2023-02-24T18:26:30;16.45;;;3.63;;
47403;SDS011;33157;51.508;4.288;2023-02-24T18:31:37;15.73;;;2.40;;
47403;SDS011;33157;51.508;4.288;2023-02-24T18:36:39;22.67;;;3.10;;
47403;SDS011;33157;51.508;4.288;2023-02-24T18:41:41;25.07;;;3.10;;
47403;SDS011;33157;51.508;4.288;2023-02-24T18:46:43;11.98;;;2.30;;
47403;SDS011;33157;51.508;4.288;2023-02-24T18:51:52;16.73;;;2.33;;
47403;SDS011;33157;51.508;4.288;2023-02-24T18:57:00;18.88;;;2.88;;
47403;SDS011;33157;51.508;4.288;2023-02-24T19:02:01;16.25;;;2.58;;
47403;SDS011;33157;51.508;4.288;2023-02-24T19:07:12;12.27;;;2.72;;
47403;SDS011;33157;51.508;4.288;2023-02-24T19:12:20;11.32;;;2.13;;
47403;SDS011;33157;51.508;4.288;2023-02-24T19:17:27;17.27;;;3.45;;
47403;SDS011;33157;51.508;4.288;2023-02-24T19:22:28;7.75;;;3.08;;
47403;SDS011;33157;51.508;4.288;2023-02-24T19:27:31;12.52;;;2.83;;
47403;SDS011;33157;51.508;4.288;2023-02-24T19:32:33;14.80;;;2.53;;
47403;SDS011;33157;51.508;4.288;2023-02-24T19:37:46;13.00;;;2.40;;
47403;SDS011;33157;51.508;4.288;2023-02-24T19:42:49;11.90;;;2.95;;
47403;SDS011;33157;51.508;4.288;2023-02-24T19:47:58;9.48;;;3.20;;
47403;SDS011;33157;51.508;4.288;2023-02-24T19:53:08;15.10;;;3.60;;
47403;SDS011;33157;51.508;4.288;2023-02-24T19:58:11;19.02;;;3.33;;
47403;SDS011;33157;51.508;4.288;2023-02-24T20:08:20;19.17;;;3.38;;
47403;SDS011;33157;51.508;4.288;2023-02-24T20:13:22;25.77;;;4.55;;
47403;SDS011;33157;51.508;4.288;2023-02-24T20:18:29;22.38;;;4.53;;
47403;SDS011;33157;51.508;4.288;2023-02-24T20:23:40;16.15;;;2.60;;
47403;SDS011;33157;51.508;4.288;2023-02-24T20:28:56;16.90;;;2.80;;
47403;SDS011;33157;51.508;4.288;2023-02-24T20:33:59;15.93;;;3.25;;
47403;SDS011;33157;51.508;4.288;2023-02-24T20:39:02;19.67;;;3.47;;
47403;SDS011;33157;51.508;4.288;2023-02-24T20:44:09;18.48;;;3.20;;
47403;SDS011;33157;51.508;4.288;2023-02-24T20:49:18;19.00;;;3.97;;
47403;SDS011;33157;51.508;4.288;2023-02-24T20:54:20;21.20;;;3.10;;
47403;SDS011;33157;51.508;4.288;2023-02-24T20:59:30;17.20;;;2.63;;
47403;SDS011;33157;51.508;4.288;2023-02-24T21:04:37;19.55;;;3.63;;
47403;SDS011;33157;51.508;4.288;2023-02-24T21:09:53;22.85;;;3.83;;
47403;SDS011;33157;51.508;4.288;2023-02-24T21:14:56;17.77;;;3.65;;
47403;SDS011;33157;51.508;4.288;2023-02-24T21:19:59;25.63;;;6.03;;
47403;SDS011;33157;51.508;4.288;2023-02-24T21:25:08;22.92;;;6.80;;
47403;SDS011;33157;51.508;4.288;2023-02-24T21:30:12;24.33;;;4.05;;
47403;SDS011;33157;51.508;4.288;2023-02-24T21:35:21;22.52;;;4.30;;
47403;SDS011;33157;51.508;4.288;2023-02-24T21:40:23;23.23;;;4.65;;
47403;SDS011;33157;51.508;4.288;2023-02-24T21:45:25;25.05;;;3.70;;
47403;SDS011;33157;51.508;4.288;2023-02-24T21:55:29;16.05;;;2.58;;
47403;SDS011;33157;51.508;4.288;2023-02-24T22:00:47;14.00;;;2.58;;
47403;SDS011;33157;51.508;4.288;2023-02-24T22:05:48;16.63;;;3.15;;
47403;SDS011;33157;51.508;4.288;2023-02-24T22:10:57;10.70;;;2.40;;
47403;SDS011;33157;51.508;4.288;2023-02-24T22:16:07;9.77;;;2.75;;
47403;SDS011;33157;51.508;4.288;2023-02-24T22:21:11;7.65;;;1.55;;
47403;SDS011;33157;51.508;4.288;2023-02-24T22:26:21;11.27;;;2.10;;
47403;SDS011;33157;51.508;4.288;2023-02-24T22:31:25;5.18;;;1.30;;
47403;SDS011;33157;51.508;4.288;2023-02-24T22:36:32;15.32;;;1.90;;
47403;SDS011;33157;51.508;4.288;2023-02-24T22:41:36;6.93;;;1.85;;
47403;SDS011;33157;51.508;4.288;2023-02-24T22:46:37;18.05;;;2.38;;
47403;SDS011;33157;51.508;4.288;2023-02-24T22:51:42;16.27;;;2.58;;
47403;SDS011;33157;51.508;4.288;2023-02-24T22:57:04;10.48;;;1.85;;
47403;SDS011;33157;51.508;4.288;2023-02-24T23:02:06;13.67;;;2.23;;
47403;SDS011;33157;51.508;4.288;2023-02-24T23:07:09;7.05;;;1.50;;
47403;SDS011;33157;51.508;4.288;2023-02-24T23:12:11;11.13;;;1.80;;
47403;SDS011;33157;51.508;4.288;2023-02-24T23:17:20;9.05;;;1.83;;
47403;SDS011;33157;51.508;4.288;2023-02-24T23:22:22;10.18;;;1.58;;
47403;SDS011;33157;51.508;4.288;2023-02-24T23:27:28;10.20;;;1.75;;
47403;SDS011;33157;51.508;4.288;2023-02-24T23:32:31;13.43;;;2.80;;
47403;SDS011;33157;51.508;4.288;2023-02-24T23:37:32;17.48;;;2.33;;
47403;SDS011;33157;51.508;4.288;2023-02-24T23:42:35;7.90;;;1.43;;
47403;SDS011;33157;51.508;4.288;2023-02-24T23:47:41;14.43;;;1.83;;
47403;SDS011;33157;51.508;4.288;2023-02-24T23:52:43;10.20;;;1.90;;
47403;SDS011;33157;51.508;4.288;2023-02-24T23:57:46;10.50;;;1.37;;
